Time;durP1;ratioP1;P1;durP2;ratioP2;P2;SDS_P1;SDS_P2;PMS_P1;PMS_P2;Temp;Humidity;BMP_temperature;BMP_pressure;BME280_temperature;BME280_humidity;BME280_pressure;Samples;Min_cycle;Max_cycle;Signal;HPM_P1;HPM_P2
2021/07/26 00:01:21;;;;;;;;;;;;;;;29.24;37.39;101045.44;5116829;28;875;-36
2021/07/26 00:03:47;;;;;;;;;;;;;;;29.24;37.15;101046.28;5116835;28;752;-36
2021/07/26 00:06:12;;;;;;;;;;;;;;;29.30;37.21;101050.09;5116790;28;839;-36
2021/07/26 00:08:37;;;;;;;;;;;;;;;29.15;37.58;101042.84;5116795;28;740;-36
2021/07/26 00:11:06;;;;;;;;;;;;;;;29.18;37.25;101047.03;5116327;28;954;-37
2021/07/26 00:13:32;;;;;;;;;;;;;;;29.15;37.51;101045.53;5120916;28;860;-36
2021/07/26 00:15:57;;;;;;;;;;;;;;;29.15;37.47;101048.25;5120751;28;776;-36
2021/07/26 00:18:22;;;;;;;;;;;;;;;29.21;37.36;101052.09;5120705;28;1962;-38
2021/07/26 00:20:48;;;;;;;;;;;;;;;29.19;37.09;101049.56;5120352;28;816;-41
2021/07/26 00:23:13;;;;;;;;;;;;;;;29.20;37.40;101048.53;5120906;28;764;-35
2021/07/26 00:25:38;;;;;;;;;;;;;;;29.18;37.32;101044.31;5120528;28;751;-39
2021/07/26 00:28:04;;;;;;;;;;;;;;;29.29;37.25;101038.44;5101601;28;930;-35
2021/07/26 00:30:29;;;;;;;;;;;;;;;29.15;37.53;101039.28;5099542;28;696;-38
2021/07/26 00:32:54;;;;;;;;;;;;;;;29.12;37.76;101034.25;5100306;28;798;-36
2021/07/26 00:35:20;;;;;;;;;;;;;;;29.19;37.63;101032.47;5100131;28;816;-34
2021/07/26 00:37:45;;;;;;;;;;;;;;;29.25;37.42;101038.97;5099580;28;1965;-39
2021/07/26 00:40:10;;;;;;;;;;;;;;;29.18;37.34;101031.63;5099604;28;856;-39
2021/07/26 00:42:36;;;;;;;;;;;;;;;29.27;37.59;101036.91;5114589;28;958;-37
2021/07/26 00:45:02;;;;;;;;;;;;;;;29.26;37.58;101024.41;5119951;28;922;-39
2021/07/26 00:47:27;;;;;;;;;;;;;;;29.28;37.43;101025.06;5120586;28;772;-37
2021/07/26 00:49:52;;;;;;;;;;;;;;;29.19;37.84;101022.47;5120276;28;763;-38
2021/07/26 00:52:18;;;;;;;;;;;;;;;29.18;37.66;101020.78;5101442;28;815;-40
2021/07/26 00:54:43;;;;;;;;;;;;;;;29.27;37.48;101016.09;5120155;28;1224;-38
2021/07/26 00:57:08;;;;;;;;;;;;;;;29.18;37.79;101023.50;5101442;28;1909;-42
2021/07/26 00:59:33;;;;;;;;;;;;;;;29.19;37.63;101008.94;5101649;28;819;-37
2021/07/26 01:01:59;;;;;;;;;;;;;;;29.29;37.59;101011.34;5119975;28;855;-37
2021/07/26 01:04:24;;;;;;;;;;;;;;;29.18;37.75;101009.94;5119676;28;744;-37
2021/07/26 01:06:49;;;;;;;;;;;;;;;29.26;37.46;101011.69;5119805;28;744;-39
2021/07/26 01:09:15;;;;;;;;;;;;;;;29.18;37.91;100998.25;5119941;28;827;-40
2021/07/26 01:11:40;;;;;;;;;;;;;;;29.19;37.88;101005.38;5119552;28;993;-39
2021/07/26 01:14:06;;;;;;;;;;;;;;;29.15;37.92;101013.03;5119830;28;758;-36
2021/07/26 01:16:31;;;;;;;;;;;;;;;29.23;38.02;101013.97;5119448;28;778;-36
2021/07/26 01:18:59;;;;;;;;;;;;;;;29.25;37.75;101014.59;5119412;28;1979;-36
2021/07/26 01:21:24;;;;;;;;;;;;;;;29.31;37.56;101009.25;5119206;28;840;-40
2021/07/26 01:23:50;;;;;;;;;;;;;;;29.33;37.84;101009.06;5119156;28;732;-36
2021/07/26 01:26:19;;;;;;;;;;;;;;;29.37;37.69;101014.94;5119114;28;954;-41
2021/07/26 01:28:45;;;;;;;;;;;;;;;29.38;37.62;101013.91;5119391;28;805;-36
2021/07/26 01:31:10;;;;;;;;;;;;;;;29.36;37.68;101010.56;5119507;28;748;-36
2021/07/26 01:33:36;;;;;;;;;;;;;;;29.42;37.24;101018.75;5119656;28;839;-40
2021/07/26 01:36:02;;;;;;;;;;;;;;;29.46;37.51;101016.50;5119383;28;748;-38
2021/07/26 01:38:27;;;;;;;;;;;;;;;29.42;37.36;101013.34;5119290;28;1968;-37
2021/07/26 01:41:01;;;;;;;;;;;;;;;29.39;37.66;101013.72;5118819;28;954;-35
2021/07/26 01:43:32;;;;;;;;;;;;;;;29.42;37.63;101002.50;5118998;28;838;-39
2021/07/26 01:46:00;;;;;;;;;;;;;;;29.47;37.26;101007.34;5119236;28;815;-36
2021/07/26 01:48:26;;;;;;;;;;;;;;;29.36;37.75;101007.84;5100806;28;935;-37
2021/07/26 01:50:58;;;;;;;;;;;;;;;29.36;37.80;101003.28;5118913;28;772;-38
2021/07/26 01:53:23;;;;;;;;;;;;;;;29.40;37.58;101001.00;5100835;28;1106;-38
2021/07/26 01:55:49;;;;;;;;;;;;;;;29.46;37.37;100998.34;5118704;28;839;-39
2021/07/26 01:58:14;;;;;;;;;;;;;;;29.52;37.47;100988.63;5118999;28;1914;-37
2021/07/26 02:00:39;;;;;;;;;;;;;;;29.43;37.52;101000.59;5118564;28;803;-39
2021/07/26 02:03:05;;;;;;;;;;;;;;;29.41;37.47;100997.28;5118864;28;742;-38
2021/07/26 02:05:30;;;;;;;;;;;;;;;29.51;37.21;100996.94;5118692;28;907;-40
2021/07/26 02:07:55;;;;;;;;;;;;;;;29.45;37.63;100998.56;5118634;28;798;-38
2021/07/26 02:10:21;;;;;;;;;;;;;;;29.39;37.72;100993.91;5118798;28;831;-38
2021/07/26 02:12:46;;;;;;;;;;;;;;;29.36;37.75;101000.56;5118497;28;938;-40
2021/07/26 02:15:11;;;;;;;;;;;;;;;29.28;38.05;100995.28;5118321;28;847;-38
2021/07/26 02:17:36;;;;;;;;;;;;;;;29.31;38.02;100994.88;5118595;28;1897;-37
2021/07/26 02:20:04;;;;;;;;;;;;;;;29.25;37.99;101001.91;5118481;28;731;-38
2021/07/26 02:22:29;;;;;;;;;;;;;;;29.19;38.21;100995.38;5118017;28;827;-39
2021/07/26 02:24:54;;;;;;;;;;;;;;;29.28;38.12;100990.66;5118568;28;790;-38
2021/07/26 02:27:19;;;;;;;;;;;;;;;29.42;37.84;100988.94;5117641;28;969;-40
2021/07/26 02:29:45;;;;;;;;;;;;;;;29.32;37.91;100981.13;5118252;28;801;-40
2021/07/26 02:32:10;;;;;;;;;;;;;;;29.37;37.92;100985.97;5118206;28;846;-40
2021/07/26 02:34:35;;;;;;;;;;;;;;;29.36;37.82;100981.59;5116982;28;823;-38
2021/07/26 02:37:01;;;;;;;;;;;;;;;29.32;38.05;100981.13;5118041;28;1902;-40
2021/07/26 02:39:26;;;;;;;;;;;;;;;29.33;37.93;100985.50;5117916;28;808;-40
2021/07/26 02:41:51;;;;;;;;;;;;;;;29.28;38.01;100987.13;5117614;28;1082;-41
2021/07/26 02:44:17;;;;;;;;;;;;;;;29.26;38.29;100989.19;5117972;28;855;-40
2021/07/26 02:46:42;;;;;;;;;;;;;;;29.31;38.23;100987.56;5117736;28;787;-38
2021/07/26 02:49:07;;;;;;;;;;;;;;;29.27;38.30;100989.00;5117836;28;866;-39
2021/07/26 02:51:32;;;;;;;;;;;;;;;29.27;38.01;100990.88;5117798;28;787;-40
2021/07/26 02:53:58;;;;;;;;;;;;;;;29.23;38.09;100990.41;5107156;28;1541;-39
2021/07/26 02:56:23;;;;;;;;;;;;;;;29.21;38.30;100990.59;5097018;28;934;-40
2021/07/26 02:58:48;;;;;;;;;;;;;;;29.25;38.31;100995.63;5078840;28;1910;-41
2021/07/26 03:01:13;;;;;;;;;;;;;;;29.31;38.09;100994.88;5097306;28;812;-39
2021/07/26 03:03:39;;;;;;;;;;;;;;;29.34;38.01;100997.19;5096624;28;841;-39
2021/07/26 03:06:04;;;;;;;;;;;;;;;29.28;38.25;101003.41;5097261;28;811;-38
2021/07/26 03:08:30;;;;;;;;;;;;;;;29.36;38.06;100997.84;5097209;28;848;-39
2021/07/26 03:11:02;;;;;;;;;;;;;;;29.30;37.96;100996.75;5096907;28;1017;-35
2021/07/26 03:13:28;;;;;;;;;;;;;;;28.75;36.49;101004.38;5097000;28;847;-40
2021/07/26 03:15:53;;;;;;;;;;;;;;;28.01;36.85;101002.25;5096965;28;786;-40
2021/07/26 03:18:18;;;;;;;;;;;;;;;27.63;37.29;100993.06;5096804;28;1925;-40
2021/07/26 03:20:46;;;;;;;;;;;;;;;27.59;37.66;100991.75;5097110;28;772;-33
2021/07/26 03:23:11;;;;;;;;;;;;;;;27.60;37.32;100998.00;5096740;28;732;-31
2021/07/26 03:25:40;;;;;;;;;;;;;;;27.50;38.01;101003.63;5096568;28;839;-41
2021/07/26 03:28:05;;;;;;;;;;;;;;;27.39;37.97;101007.59;5096717;28;954;-40
2021/07/26 03:30:30;;;;;;;;;;;;;;;27.31;37.93;101007.66;5096663;28;878;-32
2021/07/26 03:32:56;;;;;;;;;;;;;;;27.28;37.81;101008.00;5096743;28;784;-40
2021/07/26 03:35:23;;;;;;;;;;;;;;;27.23;38.15;101011.22;5096810;28;737;-41
2021/07/26 03:37:48;;;;;;;;;;;;;;;26.57;39.58;101018.56;5095986;28;1957;-38
2021/07/26 03:40:13;;;;;;;;;;;;;;;26.61;39.54;101013.66;5096814;28;733;-40
2021/07/26 03:42:39;;;;;;;;;;;;;;;26.64;39.88;101016.03;5096055;28;947;-35
2021/07/26 03:45:05;;;;;;;;;;;;;;;26.82;39.22;101012.25;5096322;28;862;-33
2021/07/26 03:47:30;;;;;;;;;;;;;;;26.72;39.60;101007.06;5096570;28;810;-35
2021/07/26 03:49:56;;;;;;;;;;;;;;;26.60;39.53;101007.44;5096715;28;850;-41
2021/07/26 03:52:21;;;;;;;;;;;;;;;26.64;39.45;101016.03;5095726;28;1515;-33
2021/07/26 03:54:46;;;;;;;;;;;;;;;26.69;39.55;101016.34;5113977;28;1089;-33
2021/07/26 03:57:12;;;;;;;;;;;;;;;26.54;39.99;101021.63;5116671;28;1970;-33
2021/07/26 03:59:37;;;;;;;;;;;;;;;26.27;40.82;101016.41;5117070;28;819;-34
2021/07/26 04:02:02;;;;;;;;;;;;;;;26.53;40.29;101023.47;5116913;28;836;-35
2021/07/26 04:04:28;;;;;;;;;;;;;;;26.67;39.84;101025.63;5097479;28;1443;-32
2021/07/26 04:07:00;;;;;;;;;;;;;;;26.59;40.34;101021.09;5115992;28;1317;-34
2021/07/26 04:09:30;;;;;;;;;;;;;;;26.69;40.28;101021.75;5116542;28;1301;-33
2021/07/26 04:12:05;;;;;;;;;;;;;;;26.35;41.39;101037.16;5116577;28;859;-34
2021/07/26 04:14:34;;;;;;;;;;;;;;;26.47;41.18;101034.94;5107657;28;968;-34
2021/07/26 04:17:00;;;;;;;;;;;;;;;26.62;40.91;101040.47;5095663;28;1972;-35
2021/07/26 04:19:25;;;;;;;;;;;;;;;26.69;40.55;101040.63;5096178;28;863;-35
2021/07/26 04:21:50;;;;;;;;;;;;;;;26.63;40.87;101034.06;5096281;28;756;-32
2021/07/26 04:24:16;;;;;;;;;;;;;;;26.65;40.68;101044.69;5077862;28;1422;-34
2021/07/26 04:26:42;;;;;;;;;;;;;;;26.62;40.80;101035.09;5102399;28;966;-33
2021/07/26 04:29:07;;;;;;;;;;;;;;;26.68;40.50;101035.38;5116114;28;932;-36
2021/07/26 04:31:32;;;;;;;;;;;;;;;26.70;40.77;101034.22;5116219;28;827;-33
2021/07/26 04:33:58;;;;;;;;;;;;;;;26.76;40.69;101032.66;5115884;28;1232;-35
2021/07/26 04:36:23;;;;;;;;;;;;;;;26.88;40.43;101038.53;5116594;28;787;-35
2021/07/26 04:38:48;;;;;;;;;;;;;;;26.94;40.08;101029.75;5116525;28;1968;-36
2021/07/26 04:41:13;;;;;;;;;;;;;;;26.92;40.36;101039.88;5116106;28;954;-34
2021/07/26 04:43:39;;;;;;;;;;;;;;;27.02;40.58;101037.00;5115966;28;823;-34
2021/07/26 04:46:05;;;;;;;;;;;;;;;26.89;41.02;101029.44;5116248;28;740;-34
2021/07/26 04:48:30;;;;;;;;;;;;;;;26.81;41.30;101038.38;5116333;28;807;-31
2021/07/26 04:50:55;;;;;;;;;;;;;;;26.85;41.25;101033.47;5116460;28;755;-32
2021/07/26 04:53:21;;;;;;;;;;;;;;;26.96;41.67;101033.09;5110829;28;1133;-27
2021/07/26 04:55:46;;;;;;;;;;;;;;;26.92;41.70;101033.63;5094646;28;1487;-30
2021/07/26 04:58:11;;;;;;;;;;;;;;;26.81;41.78;101038.38;5097073;28;1967;-33
2021/07/26 05:00:36;;;;;;;;;;;;;;;26.95;41.57;101031.41;5098596;28;1459;-33
2021/07/26 05:03:06;;;;;;;;;;;;;;;26.96;42.05;101034.97;5099621;28;805;-34
2021/07/26 05:05:34;;;;;;;;;;;;;;;27.09;41.73;101039.84;5098650;28;842;-32
2021/07/26 05:07:59;;;;;;;;;;;;;;;27.07;42.22;101050.81;5096699;28;1465;-32
2021/07/26 05:10:25;;;;;;;;;;;;;;;27.17;41.94;101047.06;5099606;28;819;-32
2021/07/26 05:12:50;;;;;;;;;;;;;;;27.17;42.18;101052.44;5098838;28;1410;-34
2021/07/26 05:15:15;;;;;;;;;;;;;;;27.16;42.55;101050.78;5099238;28;804;-34
2021/07/26 05:17:40;;;;;;;;;;;;;;;26.75;43.29;101052.56;5099377;28;1913;-33
2021/07/26 05:20:06;;;;;;;;;;;;;;;27.12;42.21;101058.38;5099412;28;847;-36
2021/07/26 05:22:31;;;;;;;;;;;;;;;27.19;42.75;101063.94;5098473;28;845;-32
2021/07/26 05:24:57;;;;;;;;;;;;;;;27.12;42.08;101064.63;5099086;28;839;-34
2021/07/26 05:27:22;;;;;;;;;;;;;;;27.17;42.26;101068.66;5098822;28;1009;-32
2021/07/26 05:29:47;;;;;;;;;;;;;;;27.17;42.40;101072.19;5099013;28;788;-35
2021/07/26 05:32:13;;;;;;;;;;;;;;;27.34;41.60;101074.81;5099155;28;764;-35
2021/07/26 05:34:38;;;;;;;;;;;;;;;27.35;41.90;101077.34;5085647;28;820;-33
2021/07/26 05:37:04;;;;;;;;;;;;;;;27.50;41.09;101076.59;5078454;28;1957;-35
2021/07/26 05:39:29;;;;;;;;;;;;;;;27.48;41.80;101079.47;5079030;28;882;-34
2021/07/26 05:41:57;;;;;;;;;;;;;;;27.46;42.12;101081.50;5086846;28;956;-32
2021/07/26 05:44:22;;;;;;;;;;;;;;;27.56;41.40;101075.88;5099069;28;744;-34
2021/07/26 05:46:47;;;;;;;;;;;;;;;27.71;40.99;101081.38;5090578;28;820;-29
2021/07/26 05:49:12;;;;;;;;;;;;;;;27.71;40.93;101077.84;5080653;28;1115;-28
2021/07/26 05:51:38;;;;;;;;;;;;;;;27.55;41.30;101079.59;5098915;28;795;-34
2021/07/26 05:54:04;;;;;;;;;;;;;;;27.62;41.02;101074.31;5109941;28;1225;-33
2021/07/26 05:56:35;;;;;;;;;;;;;;;27.74;40.61;101069.38;5118560;28;1006;-33
2021/07/26 05:59:02;;;;;;;;;;;;;;;27.72;40.56;101072.28;5115452;28;1987;-29
2021/07/26 06:01:46;;;;;;;;;;;;;;;27.84;40.27;101069.16;5109685;28;1448;-35
2021/07/26 06:04:12;;;;;;;;;;;;;;;27.75;40.16;101073.75;5118549;28;858;-34
2021/07/26 06:06:40;;;;;;;;;;;;;;;28.10;39.01;101065.22;5118885;28;827;-33
2021/07/26 06:09:05;;;;;;;;;;;;;;;28.24;38.96;101069.00;5118591;28;870;-33
2021/07/26 06:11:30;;;;;;;;;;;;;;;28.31;38.79;101071.81;5116983;28;887;-33
2021/07/26 06:13:56;;;;;;;;;;;;;;;28.30;39.07;101064.69;5109267;28;732;-34
2021/07/26 06:16:21;;;;;;;;;;;;;;;28.40;38.73;101067.16;5117771;28;1542;-35
2021/07/26 06:18:46;;;;;;;;;;;;;;;28.39;38.46;101062.78;5118427;28;1905;-33
2021/07/26 06:21:12;;;;;;;;;;;;;;;28.58;38.27;101070.38;5116779;28;1380;-35
2021/07/26 06:23:37;;;;;;;;;;;;;;;28.67;38.06;101076.56;5117657;28;1344;-36
2021/07/26 06:26:05;;;;;;;;;;;;;;;28.60;37.82;101081.88;5111161;28;843;-35
2021/07/26 06:28:31;;;;;;;;;;;;;;;28.65;37.97;101081.31;5117352;28;1471;-33
2021/07/26 06:30:56;;;;;;;;;;;;;;;28.59;38.27;101085.56;5117669;28;1379;-33
2021/07/26 06:33:21;;;;;;;;;;;;;;;28.55;38.00;101092.41;5118102;28;1391;-35
2021/07/26 06:35:46;;;;;;;;;;;;;;;28.66;38.02;101085.69;5117529;28;1471;-34
2021/07/26 06:38:12;;;;;;;;;;;;;;;28.71;37.65;101085.97;5117097;28;1980;-34
2021/07/26 06:40:37;;;;;;;;;;;;;;;28.70;37.81;101092.41;5118708;28;982;-32
2021/07/26 06:43:02;;;;;;;;;;;;;;;28.76;37.66;101085.41;5117966;28;976;-33
2021/07/26 06:45:28;;;;;;;;;;;;;;;28.56;37.42;101085.13;5099615;28;1502;-33
2021/07/26 06:47:53;;;;;;;;;;;;;;;27.70;41.74;101086.97;5118351;28;776;-31
2021/07/26 06:50:18;;;;;;;;;;;;;;;28.47;39.72;101090.63;5112369;28;785;-32
2021/07/26 06:52:44;;;;;;;;;;;;;;;28.78;38.60;101096.06;5097461;28;1723;-37
2021/07/26 06:55:09;;;;;;;;;;;;;;;28.84;38.07;101101.56;5097714;28;755;-30
2021/07/26 06:57:35;;;;;;;;;;;;;;;28.81;37.93;101085.69;5111886;28;1905;-35
2021/07/26 07:00:00;;;;;;;;;;;;;;;28.83;37.94;101093.63;5117986;28;756;-31
2021/07/26 07:02:25;;;;;;;;;;;;;;;29.01;37.51;101087.03;5117629;28;1324;-33
2021/07/26 07:04:50;;;;;;;;;;;;;;;28.98;37.29;101085.53;5117397;28;797;-33
2021/07/26 07:07:16;;;;;;;;;;;;;;;29.02;36.94;101097.69;5117580;28;791;-31
2021/07/26 07:09:41;;;;;;;;;;;;;;;29.11;36.14;101093.00;5117585;28;772;-32
2021/07/26 07:12:06;;;;;;;;;;;;;;;29.17;36.06;101099.53;5117535;28;946;-35
2021/07/26 07:14:33;;;;;;;;;;;;;;;29.17;35.92;101094.97;5099116;28;1468;-34
2021/07/26 07:16:59;;;;;;;;;;;;;;;29.11;35.76;101105.72;5102172;28;1964;-31
2021/07/26 07:19:24;;;;;;;;;;;;;;;29.17;36.07;101099.53;5097382;28;784;-32
2021/07/26 07:21:49;;;;;;;;;;;;;;;29.14;36.01;101102.63;5096930;28;855;-33
2021/07/26 07:24:15;;;;;;;;;;;;;;;29.25;35.57;101098.56;5097714;28;819;-35
2021/07/26 07:26:40;;;;;;;;;;;;;;;29.23;35.45;101093.34;5117081;28;971;-30
2021/07/26 07:29:05;;;;;;;;;;;;;;;29.23;35.60;101097.94;5109198;28;1329;-33
2021/07/26 07:31:36;;;;;;;;;;;;;;;29.23;35.40;101101.47;5116137;28;1380;-35
2021/07/26 07:34:02;;;;;;;;;;;;;;;29.31;35.35;101103.25;5114943;28;847;-31
2021/07/26 07:36:27;;;;;;;;;;;;;;;29.31;35.05;101093.25;5117359;28;798;-34
2021/07/26 07:38:52;;;;;;;;;;;;;;;29.38;34.98;101087.91;5117422;28;1909;-34
2021/07/26 07:41:18;;;;;;;;;;;;;;;29.30;35.17;101088.88;5116434;28;848;-35
2021/07/26 07:43:43;;;;;;;;;;;;;;;29.38;35.00;101087.09;5117542;28;780;-29
2021/07/26 07:46:08;;;;;;;;;;;;;;;29.50;34.81;101090.13;5117370;28;822;-30
2021/07/26 07:48:34;;;;;;;;;;;;;;;29.60;34.53;101093.41;5116984;28;813;-33
2021/07/26 07:51:00;;;;;;;;;;;;;;;29.48;35.13;101095.72;5117308;28;792;-32
2021/07/26 07:53:25;;;;;;;;;;;;;;;29.57;34.69;101097.31;5110913;28;1232;-32
2021/07/26 07:55:51;;;;;;;;;;;;;;;29.60;34.78;101106.94;5076682;28;844;-35
2021/07/26 07:58:17;;;;;;;;;;;;;;;29.61;34.53;101114.06;5095715;28;1917;-35
2021/07/26 08:00:42;;;;;;;;;;;;;;;29.75;34.32;101117.75;5097001;28;780;-34
2021/07/26 08:03:08;;;;;;;;;;;;;;;29.60;34.27;101106.94;5096376;28;770;-35
2021/07/26 08:05:33;;;;;;;;;;;;;;;29.60;34.56;101116.94;5096521;28;792;-35
2021/07/26 08:07:59;;;;;;;;;;;;;;;29.58;34.34;101111.69;5082082;28;808;-35
2021/07/26 08:10:24;;;;;;;;;;;;;;;29.57;34.57;101113.56;5076447;28;746;-32
2021/07/26 08:12:49;;;;;;;;;;;;;;;29.75;34.04;101106.06;5092247;28;1203;-33
2021/07/26 08:15:15;;;;;;;;;;;;;;;29.61;34.21;101114.06;5097049;28;738;-33
2021/07/26 08:17:40;;;;;;;;;;;;;;;29.70;34.00;101109.34;5088957;28;1971;-31
2021/07/26 08:20:07;;;;;;;;;;;;;;;29.77;34.04;101107.56;5075972;28;805;-32
2021/07/26 08:22:32;;;;;;;;;;;;;;;29.77;33.85;101104.00;5056920;28;902;-31
2021/07/26 08:24:57;;;;;;;;;;;;;;;29.81;33.96;101102.59;5085308;28;779;-31
2021/07/26 08:27:23;;;;;;;;;;;;;;;29.78;34.25;101100.28;5088660;28;908;-34
2021/07/26 08:29:48;;;;;;;;;;;;;;;29.87;34.11;101103.69;5096292;28;838;-32
2021/07/26 08:32:13;;;;;;;;;;;;;;;29.89;33.94;101105.19;5092725;28;863;-31
2021/07/26 08:34:39;;;;;;;;;;;;;;;29.92;33.84;101104.78;5080182;28;772;-31
2021/07/26 08:37:04;;;;;;;;;;;;;;;29.98;33.73;101099.63;5079986;28;1962;-32
2021/07/26 08:39:30;;;;;;;;;;;;;;;29.98;33.47;101105.88;5079981;28;820;-34
2021/07/26 08:41:55;;;;;;;;;;;;;;;29.82;34.20;101104.25;5088463;28;1018;-28
2021/07/26 08:44:20;;;;;;;;;;;;;;;29.97;33.75;101108.78;5100072;28;835;-33
2021/07/26 08:46:46;;;;;;;;;;;;;;;29.99;33.78;101107.56;5081582;28;849;-33
2021/07/26 08:49:11;;;;;;;;;;;;;;;29.98;33.71;101107.75;5061816;28;828;-33
2021/07/26 08:51:36;;;;;;;;;;;;;;;29.98;33.89;101103.16;5061939;28;748;-30
2021/07/26 08:54:02;;;;;;;;;;;;;;;29.89;34.27;101101.63;5100907;28;1484;-33
2021/07/26 08:56:27;;;;;;;;;;;;;;;29.89;34.06;101098.91;5101102;28;1111;-31
2021/07/26 08:58:52;;;;;;;;;;;;;;;29.82;34.10;101099.69;5119522;28;1975;-31
2021/07/26 09:01:17;;;;;;;;;;;;;;;29.90;34.05;101098.72;5120588;28;763;-32
2021/07/26 09:03:44;;;;;;;;;;;;;;;29.89;34.21;101096.19;5119042;28;1526;-29
2021/07/26 09:06:09;;;;;;;;;;;;;;;29.90;33.90;101095.16;5119724;28;1407;-32
2021/07/26 09:08:35;;;;;;;;;;;;;;;29.88;33.87;101098.06;5119592;28;1410;-31
2021/07/26 09:11:01;;;;;;;;;;;;;;;29.94;33.69;101101.88;5113218;28;816;-34
2021/07/26 09:13:38;;;;;;;;;;;;;;;29.94;33.75;101091.88;5120338;28;758;-35
2021/07/26 09:16:16;;;;;;;;;;;;;;;30.00;33.52;101102.97;5120124;28;744;-32
2021/07/26 09:18:42;;;;;;;;;;;;;;;29.90;33.44;101096.00;5119340;28;1897;-31
2021/07/26 09:21:07;;;;;;;;;;;;;;;29.96;33.27;101096.25;5120101;28;855;-37
2021/07/26 09:23:35;;;;;;;;;;;;;;;29.56;34.58;101092.09;5119394;28;839;-36
2021/07/26 09:26:03;;;;;;;;;;;;;;;29.21;34.03;101095.44;5119006;28;867;-36
2021/07/26 09:28:31;;;;;;;;;;;;;;;29.82;33.00;101086.13;5119696;28;936;-36
2021/07/26 09:30:57;;;;;;;;;;;;;;;29.00;34.32;101085.34;5119659;28;755;-35
2021/07/26 09:33:29;;;;;;;;;;;;;;;29.27;33.43;101085.69;5119681;28;835;-36
2021/07/26 09:36:03;;;;;;;;;;;;;;;29.60;33.34;101092.53;5117537;28;764;-36
2021/07/26 09:38:28;;;;;;;;;;;;;;;29.89;32.38;101093.47;5112374;28;1969;-35
2021/07/26 09:40:54;;;;;;;;;;;;;;;30.29;31.31;101093.88;5099594;28;1381;-36
2021/07/26 09:43:20;;;;;;;;;;;;;;;30.49;31.80;101090.47;5118582;28;1329;-36
2021/07/26 09:45:46;;;;;;;;;;;;;;;30.39;32.26;101089.97;5119011;28;1490;-36
2021/07/26 09:48:13;;;;;;;;;;;;;;;30.37;32.73;101090.16;5119110;28;1379;-36
2021/07/26 09:50:42;;;;;;;;;;;;;;;30.16;33.00;101091.84;5119137;28;1353;-36
2021/07/26 09:53:11;;;;;;;;;;;;;;;30.17;32.26;101093.53;5117895;28;1305;-36
2021/07/26 09:55:36;;;;;;;;;;;;;;;29.72;33.01;101088.31;5118297;28;1364;-38
2021/07/26 09:58:06;;;;;;;;;;;;;;;29.96;32.86;101091.69;5118216;28;1913;-37
2021/07/26 10:00:31;;;;;;;;;;;;;;;29.66;32.63;101098.03;5119129;28;832;-36
2021/07/26 10:02:57;;;;;;;;;;;;;;;30.04;32.16;101085.28;5119327;28;815;-35
2021/07/26 10:05:23;;;;;;;;;;;;;;;30.01;32.39;101094.63;5118769;28;867;-36
2021/07/26 10:07:51;;;;;;;;;;;;;;;29.64;32.10;101083.88;5119216;28;827;-36
2021/07/26 10:10:17;;;;;;;;;;;;;;;30.15;31.83;101092.88;5098928;28;1412;-34
2021/07/26 10:12:44;;;;;;;;;;;;;;;30.20;32.10;101081.47;5118177;28;1102;-38
2021/07/26 10:15:09;;;;;;;;;;;;;;;30.18;32.33;101087.06;5111940;28;828;-36
2021/07/26 10:17:34;;;;;;;;;;;;;;;30.13;32.18;101089.53;5098795;28;1959;-35
2021/07/26 10:19:59;;;;;;;;;;;;;;;29.78;32.82;101078.59;5098341;28;740;-36
2021/07/26 10:22:25;;;;;;;;;;;;;;;30.00;32.71;101078.53;5098466;28;843;-36
2021/07/26 10:25:10;;;;;;;;;;;;;;;29.94;32.70;101066.63;5098253;28;1520;-36
2021/07/26 10:27:35;;;;;;;;;;;;;;;30.01;32.66;101070.22;5096392;28;950;-36
2021/07/26 10:30:01;;;;;;;;;;;;;;;29.91;32.95;101072.44;5080532;28;744;-37
2021/07/26 10:32:29;;;;;;;;;;;;;;;29.92;32.93;101063.25;5080240;28;795;-39
2021/07/26 10:34:57;;;;;;;;;;;;;;;30.01;32.86;101066.69;5098090;28;779;-38
2021/07/26 10:37:41;;;;;;;;;;;;;;;29.76;33.23;101069.78;5098131;28;1913;-37
2021/07/26 10:40:24;;;;;;;;;;;;;;;29.89;33.11;101071.78;5106293;28;1342;-35
2021/07/26 10:42:50;;;;;;;;;;;;;;;29.77;32.96;101061.47;5114322;28;1207;-34
2021/07/26 10:45:30;;;;;;;;;;;;;;;29.96;32.88;101061.84;5118028;28;839;-38
2021/07/26 10:48:14;;;;;;;;;;;;;;;29.96;33.09;101061.00;5118277;28;760;-33
2021/07/26 10:50:39;;;;;;;;;;;;;;;29.92;33.28;101068.69;5118421;28;756;-36
2021/07/26 10:53:05;;;;;;;;;;;;;;;29.88;33.51;101059.28;5113173;28;1455;-36
2021/07/26 10:55:49;;;;;;;;;;;;;;;29.68;33.81;101049.06;5077391;28;1200;-37
2021/07/26 10:58:34;;;;;;;;;;;;;;;29.44;34.21;101057.34;5097412;28;1918;-36
2021/07/26 11:01:26;;;;;;;;;;;;;;;29.78;33.86;101049.56;5097485;28;954;-35
2021/07/26 11:03:51;;;;;;;;;;;;;;;29.63;34.26;101054.25;5058709;28;1377;-39
2021/07/26 11:06:38;;;;;;;;;;;;;;;29.51;35.29;101053.88;5090395;28;868;-38
2021/07/26 11:09:19;;;;;;;;;;;;;;;29.48;35.29;101056.97;5077240;28;804;-37
2021/07/26 11:11:53;;;;;;;;;;;;;;;29.45;35.49;101059.03;5084265;28;912;-32
2021/07/26 11:14:19;;;;;;;;;;;;;;;29.39;35.63;101062.50;5097442;28;807;-32
2021/07/26 11:16:55;;;;;;;;;;;;;;;29.68;35.12;101059.91;5097367;28;859;-34
2021/07/26 11:19:29;;;;;;;;;;;;;;;29.47;36.06;101056.13;5087662;28;1902;-35
2021/07/26 11:21:54;;;;;;;;;;;;;;;29.48;35.93;101054.25;5091031;28;1484;-33
2021/07/26 11:24:43;;;;;;;;;;;;;;;29.73;35.34;101053.91;5096505;28;1096;-38
2021/07/26 11:27:09;;;;;;;;;;;;;;;29.88;35.34;101051.97;5083618;28;1781;-31
2021/07/26 11:29:34;;;;;;;;;;;;;;;29.93;35.22;101056.78;5097008;28;970;-36
2021/07/26 11:32:00;;;;;;;;;;;;;;;30.00;34.93;101049.56;5096018;28;890;-38
2021/07/26 11:34:29;;;;;;;;;;;;;;;30.00;34.96;101046.84;5097088;28;775;-40
2021/07/26 11:37:01;;;;;;;;;;;;;;;29.98;35.41;101048.09;5097085;28;747;-40
2021/07/26 11:39:26;;;;;;;;;;;;;;;30.00;35.32;101044.13;5097015;28;1902;-41
2021/07/26 11:41:51;;;;;;;;;;;;;;;29.97;35.44;101049.97;5096559;28;938;-40
2021/07/26 11:44:26;;;;;;;;;;;;;;;30.08;35.75;101043.16;5073982;28;977;-37
2021/07/26 11:46:52;;;;;;;;;;;;;;;30.09;35.60;101044.00;5076855;28;736;-36
2021/07/26 11:49:17;;;;;;;;;;;;;;;30.14;35.62;101045.09;5076793;28;764;-37
2021/07/26 11:51:43;;;;;;;;;;;;;;;30.16;35.29;101053.03;5092999;28;764;-41
2021/07/26 11:54:08;;;;;;;;;;;;;;;30.17;35.33;101043.84;5108789;28;1128;-36
2021/07/26 11:56:34;;;;;;;;;;;;;;;30.18;35.29;101053.66;5116886;28;962;-37
2021/07/26 11:59:18;;;;;;;;;;;;;;;30.18;35.24;101046.38;5096191;28;1977;-40
2021/07/26 12:01:45;;;;;;;;;;;;;;;30.15;35.54;101057.63;5096434;28;831;-39
2021/07/26 12:04:12;;;;;;;;;;;;;;;29.14;35.32;101054.72;5113815;28;1539;-36
2021/07/26 12:06:49;;;;;;;;;;;;;;;28.15;34.96;101045.72;5117180;28;660;-36
2021/07/26 12:09:17;;;;;;;;;;;;;;;27.16;37.42;101051.59;5101140;28;756;-35
2021/07/26 12:11:42;;;;;;;;;;;;;;;26.52;38.94;101053.31;5089013;28;931;-36
2021/07/26 12:14:20;;;;;;;;;;;;;;;25.92;40.09;101048.91;5121377;28;755;-35
2021/07/26 12:17:00;;;;;;;;;;;;;;;25.74;40.23;101049.06;5121404;28;760;-36
2021/07/26 12:19:26;;;;;;;;;;;;;;;25.49;40.58;101045.47;5120778;28;1955;-40
2021/07/26 12:21:51;;;;;;;;;;;;;;;25.25;41.30;101039.84;5120314;28;1082;-37
2021/07/26 12:24:37;;;;;;;;;;;;;;;25.15;41.75;101037.31;5120239;28;844;-36
2021/07/26 12:27:02;;;;;;;;;;;;;;;25.22;45.75;101032.13;5106269;28;1547;-36
2021/07/26 12:29:29;;;;;;;;;;;;;;;26.71;39.79;101041.28;5121059;28;787;-35
2021/07/26 12:32:04;;;;;;;;;;;;;;;25.59;40.57;101035.38;5120699;28;1001;-41
2021/07/26 12:34:29;;;;;;;;;;;;;;;25.03;42.05;101038.59;5120084;28;1456;-34
2021/07/26 12:36:57;;;;;;;;;;;;;;;24.67;42.62;101024.25;5101957;28;878;-34
2021/07/26 12:39:43;;;;;;;;;;;;;;;24.60;42.66;101025.91;5118628;28;1959;-35
2021/07/26 12:42:21;;;;;;;;;;;;;;;24.49;44.86;101023.50;5116959;28;1737;-37
2021/07/26 12:44:46;;;;;;;;;;;;;;;25.91;40.78;101027.53;5100874;28;1357;-33
2021/07/26 12:47:24;;;;;;;;;;;;;;;25.30;41.80;101023.22;5101019;28;1349;-41
2021/07/26 12:49:49;;;;;;;;;;;;;;;24.68;43.11;101023.28;5118595;28;1376;-37
2021/07/26 12:52:15;;;;;;;;;;;;;;;24.58;43.42;101015.31;5119130;28;1475;-35